Fredericktown, Ohio
Current Conditions -  °F | °C
As of 10:36 PM on Monday 22 Dec 2014 (Local Time) from K4I3 Reporting Station
Scattered Clouds Scattered Clouds  
Wind Chill: 38°   Ceiling: Unl
Heat Index: 43°   Visibility: 10mi
Dew Point: 34°   Wind: 8mph
Humidity: 70%   Direction: 90°E
Pressure: 29.83"   Gusts: NA
Location:  40.48°N, 82.54°W
Report Text: K4I3 230336Z AUTO 09007KT 10SM SCT090 06/01 A2983 RMK AO2
Loading
Personal Weather Stations






























Interactive Weather Map New forecast layout! Learn more

10-Day Weather Forecast

Advertisements
Track Severe Weather on mobile